createdAt,value
2018-11-04T00:01:41.581Z,78.37
2018-11-04T00:04:10.456Z,78.41
2018-11-04T00:06:39.236Z,78.51
2018-11-04T00:09:09.590Z,79.22
2018-11-04T00:11:38.324Z,78.95
2018-11-04T00:14:10.812Z,78.65
2018-11-04T00:16:41.658Z,79.13
2018-11-04T00:19:11.213Z,79.06
2018-11-04T00:21:40.379Z,79.26
2018-11-04T00:24:16.140Z,79.76
2018-11-04T00:26:46.817Z,79.53
2018-11-04T00:29:23.323Z,79.94
2018-11-04T00:31:59.238Z,79.77
2018-11-04T00:34:29.106Z,79.49
2018-11-04T00:37:00.036Z,79.53
2018-11-04T00:39:29.905Z,79.74
2018-11-04T00:41:58.475Z,79.96
2018-11-04T00:44:28.442Z,80.21
2018-11-04T00:46:57.744Z,79.57
2018-11-04T00:49:25.855Z,79.64
2018-11-04T00:51:54.057Z,79.95
2018-11-04T00:54:22.211Z,80.03
2018-11-04T00:56:50.459Z,79.73
2018-11-04T00:59:18.585Z,80.74
2018-11-04T01:01:46.871Z,80.10
2018-11-04T01:04:15.164Z,79.71
2018-11-04T01:06:43.268Z,80.31
2018-11-04T01:09:11.448Z,80.09
2018-11-04T01:11:39.567Z,80.22
2018-11-04T01:14:07.780Z,79.83
2018-11-04T01:16:35.959Z,79.60
2018-11-04T01:19:04.160Z,79.80
2018-11-04T01:21:32.344Z,79.63
2018-11-04T01:24:00.492Z,80.10
2018-11-04T01:26:28.632Z,79.78
2018-11-04T01:28:56.771Z,79.81
2018-11-04T01:31:24.890Z,80.17
2018-11-04T01:33:52.985Z,79.53
2018-11-04T01:36:21.119Z,80.27
2018-11-04T01:38:49.219Z,81.07
2018-11-04T01:41:17.323Z,80.68
2018-11-04T01:43:45.448Z,80.62
2018-11-04T01:46:13.567Z,80.25
2018-11-04T01:48:41.682Z,79.97
2018-11-04T01:51:09.797Z,80.75
2018-11-04T01:53:37.909Z,80.92
2018-11-04T01:56:06.012Z,80.52
2018-11-04T01:58:34.121Z,80.34
2018-11-04T02:01:02.245Z,80.61
2018-11-04T02:03:30.367Z,80.35
2018-11-04T02:05:58.491Z,80.61
2018-11-04T02:08:26.607Z,80.34
2018-11-04T02:10:54.724Z,80.42
2018-11-04T02:13:22.823Z,80.89
2018-11-04T02:15:51.000Z,80.29
2018-11-04T02:18:19.156Z,80.87
2018-11-04T02:20:47.283Z,81.38
2018-11-04T02:23:15.398Z,80.73
2018-11-04T02:25:43.531Z,80.29
2018-11-04T02:28:11.645Z,81.21
2018-11-04T02:30:39.793Z,81.16
2018-11-04T02:33:07.896Z,81.04
2018-11-04T02:35:36.008Z,80.47
2018-11-04T02:38:04.563Z,80.62
2018-11-04T02:40:32.703Z,81.00
2018-11-04T02:43:00.812Z,80.74
2018-11-04T02:45:28.906Z,80.68
2018-11-04T02:47:57.008Z,81.24
2018-11-04T02:50:25.112Z,80.58
2018-11-04T02:52:55.076Z,80.75
2018-11-04T02:55:23.281Z,80.65
2018-11-04T02:57:51.545Z,80.83
2018-11-04T03:00:19.641Z,81.33
2018-11-04T03:02:47.771Z,81.27
2018-11-04T03:05:15.901Z,81.22
2018-11-04T03:07:44.208Z,81.44
2018-11-04T03:10:13.628Z,81.09
2018-11-04T03:12:41.864Z,81.14
2018-11-04T03:15:10.139Z,81.81
2018-11-04T03:17:38.331Z,81.54
2018-11-04T03:20:06.738Z,81.56
2018-11-04T03:22:34.874Z,81.89
2018-11-04T03:25:02.982Z,81.23
2018-11-04T03:27:31.146Z,81.17
2018-11-04T03:29:59.256Z,81.51
2018-11-04T03:32:27.399Z,81.10
2018-11-04T03:34:55.495Z,81.23
2018-11-04T03:37:23.601Z,81.70
2018-11-04T03:39:51.706Z,81.53
2018-11-04T03:42:19.840Z,81.78
2018-11-04T03:44:47.939Z,81.68
2018-11-04T03:47:16.056Z,81.21
2018-11-04T03:49:44.182Z,81.41
2018-11-04T03:52:12.307Z,81.20
2018-11-04T03:54:40.407Z,81.43
2018-11-04T03:57:08.531Z,81.47
2018-11-04T03:59:36.643Z,81.64
2018-11-04T04:02:05.312Z,80.93
2018-11-04T04:04:33.427Z,81.41
2018-11-04T04:07:01.565Z,81.82
2018-11-04T04:09:29.740Z,81.42
2018-11-04T04:11:57.938Z,81.46
2018-11-04T04:14:26.042Z,81.69
2018-11-04T04:16:54.139Z,82.12
2018-11-04T04:19:22.216Z,82.28
2018-11-04T04:21:50.342Z,82.45
2018-11-04T04:24:18.419Z,82.19
2018-11-04T04:26:46.657Z,82.13
2018-11-04T04:29:14.748Z,82.37
2018-11-04T04:31:42.856Z,82.51
2018-11-04T04:34:10.969Z,81.77
2018-11-04T04:36:39.087Z,81.94
2018-11-04T04:39:08.875Z,81.85
2018-11-04T04:41:36.964Z,82.06
2018-11-04T04:44:05.144Z,82.06
2018-11-04T04:46:33.271Z,82.18
2018-11-04T04:49:01.423Z,82.52
2018-11-04T04:51:29.559Z,82.58
2018-11-04T04:53:57.680Z,82.79
2018-11-04T04:56:25.759Z,82.01
2018-11-04T04:58:53.848Z,82.68
2018-11-04T05:01:21.912Z,82.63
2018-11-04T05:03:49.999Z,82.92
2018-11-04T05:06:18.089Z,82.91
2018-11-04T05:08:46.255Z,82.54
2018-11-04T05:11:14.379Z,82.65
2018-11-04T05:13:42.499Z,82.58
2018-11-04T05:16:10.582Z,82.47
2018-11-04T05:18:38.696Z,82.99
2018-11-04T05:21:06.784Z,82.64
2018-11-04T05:23:34.868Z,82.62
2018-11-04T05:26:02.972Z,83.10
2018-11-04T05:28:31.096Z,82.49
2018-11-04T05:30:59.259Z,82.77
2018-11-04T05:33:27.346Z,82.57
2018-11-04T05:35:55.416Z,82.38
2018-11-04T05:38:23.511Z,82.14
2018-11-04T05:40:51.587Z,82.95
2018-11-04T05:43:19.687Z,82.48
2018-11-04T05:45:47.754Z,83.03
2018-11-04T05:48:15.853Z,82.76
2018-11-04T05:50:43.953Z,82.58
2018-11-04T05:53:12.037Z,83.06
2018-11-04T05:55:40.103Z,83.12
2018-11-04T05:58:08.192Z,83.07
2018-11-04T06:00:36.284Z,82.61
2018-11-04T06:03:04.568Z,83.01
2018-11-04T06:05:32.656Z,82.64
2018-11-04T06:08:00.748Z,83.20
2018-11-04T06:10:28.838Z,83.05
2018-11-04T06:12:56.924Z,83.40
2018-11-04T06:15:25.013Z,83.69
2018-11-04T06:17:53.090Z,83.03
2018-11-04T06:20:21.162Z,83.11
2018-11-04T06:22:49.247Z,83.13
2018-11-04T06:25:17.337Z,83.70
2018-11-04T06:27:45.447Z,83.24
2018-11-04T06:30:13.822Z,83.11
2018-11-04T06:32:42.765Z,82.76
2018-11-04T06:35:10.979Z,83.14
2018-11-04T06:37:39.163Z,82.95
2018-11-04T06:40:08.307Z,83.22
2018-11-04T06:42:36.516Z,83.40
2018-11-04T06:45:05.475Z,82.50
2018-11-04T06:47:33.614Z,83.07
2018-11-04T06:50:01.712Z,82.93
2018-11-04T06:52:29.801Z,83.55
2018-11-04T06:54:57.867Z,82.76
2018-11-04T06:57:25.972Z,82.66
2018-11-04T06:59:54.107Z,83.13
2018-11-04T07:02:22.122Z,82.72
2018-11-04T07:04:50.216Z,82.73
2018-11-04T07:07:18.314Z,82.42
2018-11-04T07:09:46.393Z,83.44
2018-11-04T07:12:22.200Z,83.23
2018-11-04T07:14:51.373Z,83.29
2018-11-04T07:17:20.735Z,82.58
2018-11-04T07:19:50.980Z,82.96
2018-11-04T07:22:20.448Z,82.70
2018-11-04T07:24:51.498Z,83.15
2018-11-04T07:27:22.388Z,83.04
2018-11-04T07:29:54.046Z,82.82
2018-11-04T07:32:24.505Z,82.19
2018-11-04T07:34:55.111Z,83.69
2018-11-04T07:37:23.736Z,82.99
2018-11-04T07:39:53.657Z,83.12
2018-11-04T07:42:22.659Z,83.15
2018-11-04T07:44:53.545Z,83.96
2018-11-04T07:47:22.489Z,84.05
2018-11-04T07:49:50.731Z,83.35
2018-11-04T07:52:24.548Z,82.95
2018-11-04T07:54:53.855Z,83.12
2018-11-04T07:57:23.514Z,82.34
2018-11-04T07:59:56.002Z,83.16
2018-11-04T08:02:24.651Z,83.28
2018-11-04T08:04:53.553Z,83.17
2018-11-04T08:07:22.990Z,83.26
2018-11-04T08:09:53.672Z,82.11
2018-11-04T08:12:24.338Z,82.18
2018-11-04T08:14:53.636Z,82.53
2018-11-04T08:17:23.813Z,82.54
2018-11-04T08:19:53.739Z,81.97
2018-11-04T08:22:23.028Z,82.32
2018-11-04T08:24:53.708Z,82.29
2018-11-04T08:27:22.618Z,81.80
2018-11-04T08:29:58.654Z,81.75
2018-11-04T08:32:30.605Z,82.07
2018-11-04T08:35:01.768Z,81.12
2018-11-04T08:37:30.880Z,81.85
2018-11-04T08:40:00.943Z,80.87
2018-11-04T08:42:30.382Z,81.45
2018-11-04T08:45:00.868Z,81.11
2018-11-04T08:47:29.480Z,81.61
2018-11-04T08:49:58.050Z,81.02
2018-11-04T08:52:28.073Z,82.35
2018-11-04T08:54:58.153Z,81.90
2018-11-04T08:57:29.024Z,82.73
2018-11-04T09:00:00.482Z,82.47
2018-11-04T09:02:30.295Z,82.31
2018-11-04T09:04:59.481Z,81.99
2018-11-04T09:07:27.595Z,82.08
2018-11-04T09:09:55.700Z,82.48
2018-11-04T09:12:23.791Z,82.09
2018-11-04T09:14:51.904Z,82.43
2018-11-04T09:17:20.055Z,82.55
2018-11-04T09:19:48.147Z,82.69
2018-11-04T09:22:16.309Z,82.67
2018-11-04T09:24:44.328Z,82.31
2018-11-04T09:27:12.485Z,81.52
2018-11-04T09:29:40.592Z,81.42
2018-11-04T09:32:08.687Z,81.28
2018-11-04T09:34:36.803Z,81.52
2018-11-04T09:37:04.999Z,81.53
2018-11-04T09:39:33.111Z,81.40
2018-11-04T09:42:01.204Z,82.23
2018-11-04T09:44:29.327Z,81.92
2018-11-04T09:46:57.462Z,82.06
2018-11-04T09:49:25.557Z,81.96
2018-11-04T09:51:53.639Z,81.76
2018-11-04T09:54:21.790Z,81.22
2018-11-04T09:56:49.902Z,81.45
2018-11-04T09:59:17.998Z,80.58
2018-11-04T10:01:46.259Z,81.00
2018-11-04T10:04:14.815Z,80.77
2018-11-04T10:06:42.924Z,80.80
2018-11-04T10:09:11.482Z,81.36
2018-11-04T10:11:39.625Z,81.58
2018-11-04T10:14:08.453Z,80.58
2018-11-04T10:16:36.819Z,80.60
2018-11-04T10:19:05.268Z,80.69
2018-11-04T10:21:33.220Z,80.68
2018-11-04T10:24:01.352Z,80.93
2018-11-04T10:26:29.420Z,80.87
2018-11-04T10:28:57.541Z,80.66
2018-11-04T10:31:25.615Z,80.81
2018-11-04T10:33:53.699Z,80.69
2018-11-04T10:36:21.856Z,80.54
2018-11-04T10:38:49.923Z,81.11
2018-11-04T10:41:18.015Z,80.65
2018-11-04T10:43:46.118Z,80.62
2018-11-04T10:46:14.199Z,80.56
2018-11-04T10:48:42.752Z,80.76
2018-11-04T10:51:10.871Z,80.66
2018-11-04T10:53:39.020Z,80.80
2018-11-04T10:56:07.120Z,80.13
2018-11-04T10:58:35.288Z,79.77
2018-11-04T11:01:06.526Z,80.72
2018-11-04T11:03:34.656Z,80.36
2018-11-04T11:06:02.819Z,80.40
2018-11-04T11:08:30.920Z,80.16
2018-11-04T11:10:59.215Z,79.14
2018-11-04T11:13:27.370Z,79.40
2018-11-04T11:15:55.540Z,78.67
2018-11-04T11:18:23.655Z,78.65
2018-11-04T11:20:51.747Z,78.48
2018-11-04T11:23:19.904Z,79.08
2018-11-04T11:25:47.940Z,78.77
2018-11-04T11:28:16.055Z,78.81
2018-11-04T11:30:44.139Z,78.29
2018-11-04T11:33:12.306Z,78.48
2018-11-04T11:35:40.433Z,78.29
2018-11-04T11:38:09.659Z,78.74
2018-11-04T11:40:37.758Z,78.97
2018-11-04T11:43:05.909Z,78.45
2018-11-04T11:45:33.994Z,78.87
2018-11-04T11:48:02.101Z,78.12
2018-11-04T11:50:30.231Z,78.11
2018-11-04T11:52:58.307Z,77.73
2018-11-04T11:55:26.419Z,78.00
2018-11-04T11:57:54.530Z,77.40
2018-11-04T12:00:23.235Z,78.69
2018-11-04T12:02:51.304Z,78.46
2018-11-04T12:05:19.451Z,77.96
2018-11-04T12:07:47.485Z,77.89
2018-11-04T12:10:15.675Z,78.92
2018-11-04T12:12:43.752Z,78.88
2018-11-04T12:15:12.942Z,78.86
2018-11-04T12:17:41.045Z,78.67
2018-11-04T12:20:10.015Z,78.15
2018-11-04T12:22:38.112Z,78.43
2018-11-04T12:25:07.460Z,77.88
2018-11-04T12:27:35.549Z,77.98
2018-11-04T12:30:03.689Z,77.41
2018-11-04T12:32:31.761Z,77.40
2018-11-04T12:34:59.973Z,77.85
2018-11-04T12:37:28.023Z,77.30
2018-11-04T12:39:56.100Z,77.41
2018-11-04T12:42:24.211Z,77.35
2018-11-04T12:44:52.358Z,78.54
2018-11-04T12:47:20.431Z,78.24
2018-11-04T12:49:48.562Z,76.89
2018-11-04T12:52:16.775Z,77.79
2018-11-04T12:54:44.787Z,77.86
2018-11-04T12:57:12.893Z,78.27
2018-11-04T12:59:40.963Z,78.22
2018-11-04T13:02:09.171Z,77.64
2018-11-04T13:04:37.167Z,77.84
2018-11-04T13:07:05.509Z,78.89
2018-11-04T13:09:33.692Z,77.68
2018-11-04T13:12:02.075Z,77.24
2018-11-04T13:14:30.233Z,77.38
2018-11-04T13:16:58.316Z,78.26
2018-11-04T13:19:26.452Z,77.75
2018-11-04T13:21:54.561Z,77.45
2018-11-04T13:24:22.652Z,77.99
2018-11-04T13:26:50.776Z,78.49
2018-11-04T13:29:18.865Z,78.61
2018-11-04T13:31:46.964Z,77.83
2018-11-04T13:34:15.170Z,77.87
2018-11-04T13:36:43.277Z,78.36
2018-11-04T13:39:11.631Z,78.26
2018-11-04T13:41:39.753Z,77.62
2018-11-04T13:44:09.811Z,78.40
2018-11-04T13:46:37.903Z,77.96
2018-11-04T13:49:05.994Z,78.60
2018-11-04T13:51:34.071Z,78.90
2018-11-04T13:54:02.179Z,78.81
2018-11-04T13:56:31.412Z,78.37
2018-11-04T13:58:59.490Z,78.38
2018-11-04T14:01:28.163Z,79.09
2018-11-04T14:03:56.227Z,78.54
2018-11-04T14:06:24.294Z,78.32
2018-11-04T14:08:54.231Z,79.12
2018-11-04T14:11:23.326Z,79.16
2018-11-04T14:13:51.511Z,78.97
2018-11-04T14:16:19.603Z,77.93
2018-11-04T14:18:47.743Z,78.37
2018-11-04T14:21:15.939Z,78.63
2018-11-04T14:23:44.071Z,78.49
2018-11-04T14:26:12.343Z,78.16
2018-11-04T14:28:40.432Z,78.29
2018-11-04T14:31:08.633Z,78.31
2018-11-04T14:33:36.680Z,78.30
2018-11-04T14:36:04.770Z,78.10
2018-11-04T14:38:32.916Z,79.01
2018-11-04T14:41:00.995Z,78.85
2018-11-04T14:43:29.131Z,79.12
2018-11-04T14:45:57.243Z,78.72
2018-11-04T14:48:25.425Z,77.70
2018-11-04T14:50:53.530Z,77.76
2018-11-04T14:53:21.648Z,78.32
2018-11-04T14:55:49.755Z,78.11
2018-11-04T14:58:17.937Z,77.83
2018-11-04T15:00:46.068Z,77.82
2018-11-04T15:03:14.500Z,79.26
2018-11-04T15:05:42.650Z,78.46
2018-11-04T15:08:10.736Z,77.78
2018-11-04T15:10:38.903Z,77.79
2018-11-04T15:13:07.012Z,77.30
2018-11-04T15:15:35.107Z,78.37
2018-11-04T15:18:03.288Z,77.97
2018-11-04T15:20:37.835Z,78.01
2018-11-04T15:23:06.401Z,78.56
2018-11-04T15:25:34.476Z,79.26
2018-11-04T15:28:02.552Z,79.19
2018-11-04T15:30:30.638Z,80.22
2018-11-04T15:32:58.805Z,80.15
2018-11-04T15:35:27.006Z,79.64
2018-11-04T15:37:55.165Z,78.58
2018-11-04T15:40:23.357Z,78.82
2018-11-04T15:42:51.410Z,79.25
2018-11-04T15:45:19.515Z,79.00
2018-11-04T15:47:47.641Z,78.55
2018-11-04T15:50:17.072Z,79.30
2018-11-04T15:52:45.372Z,79.53
2018-11-04T15:55:13.483Z,79.02
2018-11-04T15:57:41.577Z,79.53
2018-11-04T16:00:11.300Z,78.98
2018-11-04T16:02:39.462Z,78.40
2018-11-04T16:05:08.221Z,78.30
2018-11-04T16:07:36.357Z,79.59
2018-11-04T16:10:04.778Z,79.50
2018-11-04T16:12:32.939Z,78.90
2018-11-04T16:15:01.131Z,79.43
2018-11-04T16:17:29.184Z,79.17
2018-11-04T16:19:57.409Z,79.29
2018-11-04T16:22:25.526Z,79.16
2018-11-04T16:24:53.597Z,78.87
2018-11-04T16:27:21.748Z,79.14
2018-11-04T16:29:49.912Z,79.02
2018-11-04T16:32:18.009Z,79.83
2018-11-04T16:34:46.835Z,79.35
2018-11-04T16:37:14.907Z,79.12
2018-11-04T16:39:43.029Z,79.06
2018-11-04T16:42:11.104Z,79.87
2018-11-04T16:44:40.591Z,79.26
2018-11-04T16:47:09.183Z,79.32
2018-11-04T16:49:37.244Z,79.31
2018-11-04T16:52:06.223Z,78.57
2018-11-04T16:54:34.379Z,79.31
2018-11-04T16:57:04.298Z,79.16
2018-11-04T16:59:32.614Z,79.80
2018-11-04T17:02:00.716Z,79.82
2018-11-04T17:04:29.042Z,79.07
2018-11-04T17:06:57.275Z,79.69
2018-11-04T17:09:25.386Z,79.83
2018-11-04T17:11:53.494Z,80.22
2018-11-04T17:14:21.610Z,79.23
2018-11-04T17:16:49.696Z,79.18
2018-11-04T17:19:17.940Z,79.63
2018-11-04T17:21:46.462Z,79.74
2018-11-04T17:24:15.068Z,79.51
2018-11-04T17:26:43.179Z,79.99
2018-11-04T17:29:11.735Z,79.75
2018-11-04T17:31:40.279Z,80.52
2018-11-04T17:34:08.495Z,80.68
2018-11-04T17:36:36.652Z,80.18
2018-11-04T17:39:07.489Z,80.50
2018-11-04T17:41:35.715Z,80.03
2018-11-04T17:44:04.046Z,80.41
2018-11-04T17:46:32.166Z,80.08
2018-11-04T17:49:00.264Z,79.48
2018-11-04T17:51:29.691Z,79.86
2018-11-04T17:53:59.003Z,80.35
2018-11-04T17:56:28.446Z,80.34
2018-11-04T17:59:00.962Z,80.60
2018-11-04T18:01:30.920Z,80.81
2018-11-04T18:04:03.249Z,80.37
2018-11-04T18:06:33.783Z,80.40
2018-11-04T18:09:05.074Z,80.41
2018-11-04T18:11:34.954Z,79.50
2018-11-04T18:14:03.983Z,79.96
2018-11-04T18:16:32.487Z,79.47
2018-11-04T18:19:03.371Z,80.25
2018-11-04T18:21:32.774Z,79.90
2018-11-04T18:24:02.021Z,81.03
2018-11-04T18:26:31.102Z,80.56
2018-11-04T18:28:59.158Z,80.99
2018-11-04T18:31:27.440Z,80.40
2018-11-04T18:33:56.107Z,80.56
2018-11-04T18:36:25.914Z,79.74
2018-11-04T18:38:56.924Z,79.92
2018-11-04T18:41:25.069Z,80.13
2018-11-04T18:43:53.701Z,80.19
2018-11-04T18:46:23.060Z,80.12
2018-11-04T18:48:51.567Z,80.01
2018-11-04T18:51:19.896Z,79.91
2018-11-04T18:53:49.740Z,79.81
2018-11-04T18:56:17.989Z,79.93
2018-11-04T18:58:46.486Z,79.95
2018-11-04T19:01:14.936Z,79.89
2018-11-04T19:03:43.607Z,79.64
2018-11-04T19:06:12.812Z,79.79
2018-11-04T19:08:41.274Z,79.92
2018-11-04T19:11:10.374Z,80.22
2018-11-04T19:13:38.748Z,79.47
2018-11-04T19:16:07.109Z,79.80
2018-11-04T19:18:35.550Z,79.87
2018-11-04T19:21:03.805Z,80.05
2018-11-04T19:23:33.738Z,80.44
2018-11-04T19:26:02.918Z,80.45
2018-11-04T19:28:32.106Z,80.16
2018-11-04T19:31:00.601Z,80.51
2018-11-04T19:33:28.875Z,79.51
2018-11-04T19:36:01.036Z,79.46
2018-11-04T19:38:32.404Z,79.31
2018-11-04T19:41:03.725Z,80.24
2018-11-04T19:43:33.049Z,80.07
2018-11-04T19:46:02.411Z,79.69
2018-11-04T19:48:32.442Z,79.42
2018-11-04T19:51:01.791Z,79.88
2018-11-04T19:53:32.686Z,79.85
2018-11-04T19:56:01.863Z,80.09
2018-11-04T19:58:31.947Z,79.92
2018-11-04T20:01:01.998Z,80.44
2018-11-04T20:03:31.294Z,80.04
2018-11-04T20:06:03.483Z,80.75
2018-11-04T20:08:33.653Z,80.64
2018-11-04T20:11:02.286Z,79.86
2018-11-04T20:13:35.835Z,79.77
2018-11-04T20:16:05.087Z,79.97
2018-11-04T20:21:22.542Z,80.61
2018-11-04T20:23:54.765Z,80.54
2018-11-04T20:26:25.552Z,80.25
2018-11-04T20:29:00.964Z,80.62
2018-11-04T20:31:34.751Z,80.26
2018-11-04T20:34:08.763Z,79.71
2018-11-04T20:36:42.783Z,79.85
2018-11-04T20:39:17.358Z,80.02
2018-11-04T20:41:45.756Z,80.20
2018-11-04T20:44:14.039Z,80.31
2018-11-04T20:46:42.476Z,80.41
2018-11-04T20:49:16.490Z,79.93
2018-11-04T20:51:47.922Z,80.21
2018-11-04T20:54:16.928Z,80.00
2018-11-04T20:56:50.617Z,80.14
2018-11-04T20:59:20.663Z,81.12
2018-11-04T21:01:51.494Z,80.84
2018-11-04T21:04:21.598Z,80.62
2018-11-04T21:06:50.630Z,80.93
2018-11-04T21:09:19.940Z,79.97
2018-11-04T21:11:50.324Z,80.02
2018-11-04T21:14:20.515Z,80.43
2018-11-04T21:16:52.108Z,80.28
2018-11-04T21:19:20.629Z,80.64
2018-11-04T21:21:49.334Z,80.39
2018-11-04T21:24:17.634Z,80.58
2018-11-04T21:26:48.095Z,80.54
2018-11-04T21:29:18.027Z,80.33
2018-11-04T21:31:48.405Z,80.34
2018-11-04T21:34:19.214Z,81.07
2018-11-04T21:36:47.802Z,80.76
2018-11-04T21:39:21.203Z,81.10
2018-11-04T21:41:49.861Z,81.63
2018-11-04T21:44:19.098Z,80.64
2018-11-04T21:46:47.646Z,80.41
2018-11-04T21:49:16.019Z,80.82
2018-11-04T21:51:44.976Z,80.94
2018-11-04T21:54:16.178Z,80.22
2018-11-04T21:56:45.445Z,80.66
2018-11-04T21:59:14.784Z,80.89
2018-11-04T22:01:44.974Z,80.66
2018-11-04T22:04:13.558Z,80.57
2018-11-04T22:06:43.244Z,80.86
2018-11-04T22:09:12.229Z,81.05
2018-11-04T22:11:43.333Z,81.25
2018-11-04T22:14:13.261Z,81.62
2018-11-04T22:16:43.410Z,80.73
2018-11-04T22:19:14.230Z,80.87
2018-11-04T22:21:49.035Z,80.13
2018-11-04T22:24:17.832Z,81.13
2018-11-04T22:26:46.636Z,80.21
2018-11-04T22:29:15.247Z,80.53
2018-11-04T22:31:44.553Z,81.24
2018-11-04T22:34:13.510Z,80.99
2018-11-04T22:36:42.240Z,81.26
2018-11-04T22:39:11.583Z,81.25
2018-11-04T22:41:42.960Z,82.13
2018-11-04T22:44:14.219Z,81.39
2018-11-04T22:46:44.645Z,81.73
2018-11-04T22:49:14.939Z,81.90
2018-11-04T22:51:55.769Z,81.71
2018-11-04T22:54:25.488Z,82.45
2018-11-04T22:56:53.923Z,82.04
2018-11-04T22:59:22.512Z,81.68
2018-11-04T23:01:53.009Z,82.13
2018-11-04T23:04:26.406Z,82.43
2018-11-04T23:06:55.638Z,82.51
2018-11-04T23:09:24.173Z,81.92
2018-11-04T23:11:54.979Z,82.50
2018-11-04T23:14:23.695Z,82.59
2018-11-04T23:16:54.703Z,82.87
2018-11-04T23:19:25.273Z,82.40
2018-11-04T23:21:56.055Z,83.35
2018-11-04T23:24:28.145Z,83.71
2018-11-04T23:26:57.109Z,82.82
2018-11-04T23:29:26.935Z,82.29
2018-11-04T23:31:55.247Z,83.20
2018-11-04T23:34:27.435Z,82.76
2018-11-04T23:36:58.018Z,83.06
2018-11-04T23:39:29.438Z,83.12
2018-11-04T23:41:58.500Z,82.89
2018-11-04T23:44:28.782Z,82.63
2018-11-04T23:46:58.883Z,83.39
2018-11-04T23:49:28.207Z,82.57
2018-11-04T23:51:57.196Z,83.23
2018-11-04T23:54:26.030Z,83.07
2018-11-04T23:56:55.363Z,82.97
2018-11-04T23:59:24.488Z,82.87
